Time;durP1;ratioP1;P1;durP2;ratioP2;P2;SDS_P1;SDS_P2;PMS_P1;PMS_P2;Temp;Humidity;BMP_temperature;BMP_pressure;BME280_temperature;BME280_humidity;BME280_pressure;Samples;Min_cycle;Max_cycle;Signal;HPM_P1;HPM_P2
2022/11/18 04:16:08;;;;;;;1999.90;999.90;;;;;;;;;;5409028;22;20327;-73
2022/11/18 04:18:53;;;;;;;1999.90;999.90;;;;;;;;;;5038348;28;20689;-73
2022/11/18 04:21:38;;;;;;;1999.90;999.90;;;;;;;;;;5040012;28;20225;-72
2022/11/18 04:24:23;;;;;;;1999.90;999.90;;;;;;;;;;5031327;28;20214;-74
2022/11/18 04:27:08;;;;;;;1999.90;999.90;;;;;;;;;;5032121;28;20279;-69
2022/11/18 04:29:54;;;;;;;1999.90;999.90;;;;;;;;;;5031862;28;20206;-73
2022/11/18 04:32:40;;;;;;;1999.90;999.90;;;;;;;;;;5031924;28;20327;-71
2022/11/18 04:35:26;;;;;;;1999.90;999.90;;;;;;;;;;5031316;28;20277;-69
2022/11/18 04:38:10;;;;;;;1999.90;999.90;;;;;;;;;;5032002;28;20210;-73
2022/11/18 04:40:55;;;;;;;1999.90;999.90;;;;;;;;;;5031707;28;20217;-73
2022/11/18 04:43:40;;;;;;;1999.90;999.90;;;;;;;;;;5031812;28;20208;-72
2022/11/18 04:46:25;;;;;;;1999.90;999.90;;;;;;;;;;5031357;28;20287;-73
2022/11/18 04:49:12;;;;;;;1999.90;999.90;;;;;;;;;;5031958;28;20324;-73
2022/11/18 04:51:57;;;;;;;1999.90;999.90;;;;;;;;;;5031479;28;20737;-73
2022/11/18 04:54:42;;;;;;;1999.90;999.90;;;;;;;;;;5031559;28;20225;-73
2022/11/18 04:57:27;;;;;;;1999.90;999.90;;;;;;;;;;5031356;28;20415;-73
2022/11/18 05:00:12;;;;;;;1999.90;999.90;;;;;;;;;;5031699;28;20202;-73
2022/11/18 05:02:57;;;;;;;1999.90;999.90;;;;;;;;;;5031645;28;20220;-74
2022/11/18 05:05:43;;;;;;;1999.90;999.90;;;;;;;;;;5031179;28;20221;-73
2022/11/18 05:08:28;;;;;;;1999.90;999.90;;;;;;;;;;5031579;28;20212;-73
2022/11/18 05:14:16;;;;;;;1999.90;999.90;;;;;;;;;;5051292;28;20225;-73
2022/11/18 05:17:01;;;;;;;1999.90;999.90;;;;;;;;;;5042722;28;20209;-73
2022/11/18 05:19:46;;;;;;;1999.90;999.90;;;;;;;;;;5051366;28;20212;-74
2022/11/18 05:22:32;;;;;;;1999.90;999.90;;;;;;;;;;5051172;28;20699;-73
2022/11/18 05:25:17;;;;;;;1999.90;999.90;;;;;;;;;;5044783;28;20714;-74
2022/11/18 05:28:02;;;;;;;1999.90;999.90;;;;;;;;;;5052813;28;20415;-73
2022/11/18 05:30:46;;;;;;;1999.90;999.90;;;;;;;;;;5054269;28;20212;-74
2022/11/18 05:33:31;;;;;;;1999.90;999.90;;;;;;;;;;5048468;28;20688;-73
2022/11/18 05:36:17;;;;;;;1999.90;999.90;;;;;;;;;;5053533;28;20664;-72
2022/11/18 05:39:04;;;;;;;1999.90;999.90;;;;;;;;;;5054962;28;20783;-72
2022/11/18 05:44:51;;;;;;;1999.90;999.90;;;;;;;;;;5049458;28;20765;-74
2022/11/18 05:47:58;;;;;;;1999.90;999.90;;;;;;;;;;5048694;28;20224;-71
2022/11/18 05:50:42;;;;;;;1999.90;999.90;;;;;;;;;;5053369;28;20265;-73
2022/11/18 05:53:27;;;;;;;1999.90;999.90;;;;;;;;;;5047722;28;20220;-73
2022/11/18 05:56:17;;;;;;;1999.90;999.90;;;;;;;;;;5053169;28;20230;-73
2022/11/18 05:59:01;;;;;;;1999.90;999.90;;;;;;;;;;5054425;28;20204;-71
2022/11/18 06:01:48;;;;;;;1999.90;999.90;;;;;;;;;;5053275;28;20248;-72
2022/11/18 06:04:36;;;;;;;1999.90;999.90;;;;;;;;;;5052627;28;20291;-72
2022/11/18 06:07:22;;;;;;;1999.90;999.90;;;;;;;;;;5046351;28;20205;-71
2022/11/18 06:10:09;;;;;;;1999.90;999.90;;;;;;;;;;5053276;28;20203;-74
2022/11/18 06:12:58;;;;;;;1999.90;999.90;;;;;;;;;;5054248;28;20922;-72
2022/11/18 06:15:44;;;;;;;1999.90;999.90;;;;;;;;;;5052858;28;20227;-75
2022/11/18 06:18:30;;;;;;;1999.90;999.90;;;;;;;;;;5047581;28;20278;-75
2022/11/18 06:21:15;;;;;;;1999.90;999.90;;;;;;;;;;5052895;28;20267;-73
2022/11/18 06:24:01;;;;;;;1999.90;999.90;;;;;;;;;;5053061;28;20695;-72
2022/11/18 06:26:46;;;;;;;1999.90;999.90;;;;;;;;;;5049340;28;20229;-72
2022/11/18 06:29:33;;;;;;;1999.90;999.90;;;;;;;;;;5039013;28;20241;-72
2022/11/18 06:32:18;;;;;;;1999.90;999.90;;;;;;;;;;5054039;28;20212;-73
2022/11/18 06:35:03;;;;;;;1999.90;999.90;;;;;;;;;;5051606;28;20240;-72
2022/11/18 06:37:47;;;;;;;1999.90;999.90;;;;;;;;;;5053077;28;20319;-72
2022/11/18 06:40:34;;;;;;;1999.90;999.90;;;;;;;;;;5048908;28;20227;-72
2022/11/18 06:49:22;;;;;;;1999.90;999.90;;;;;;;;;;5044770;28;20330;-72
2022/11/18 06:52:07;;;;;;;1999.90;999.90;;;;;;;;;;5052422;28;20758;-72
2022/11/18 06:54:52;;;;;;;1999.90;999.90;;;;;;;;;;5052232;28;20231;-72
2022/11/18 06:57:37;;;;;;;1999.90;999.90;;;;;;;;;;5047384;28;20307;-74
2022/11/18 07:00:22;;;;;;;1999.90;999.90;;;;;;;;;;5050442;28;20205;-73
2022/11/18 07:03:08;;;;;;;1999.90;999.90;;;;;;;;;;5034237;28;20604;-72
2022/11/18 07:05:53;;;;;;;1999.90;999.90;;;;;;;;;;5040685;28;20232;-72
2022/11/18 07:08:38;;;;;;;1999.90;999.90;;;;;;;;;;5032773;28;20217;-72
2022/11/18 07:11:24;;;;;;;1999.90;999.90;;;;;;;;;;5033857;28;20222;-73
2022/11/18 07:14:09;;;;;;;1999.90;999.90;;;;;;;;;;5032934;28;20685;-70
2022/11/18 07:16:54;;;;;;;1999.90;999.90;;;;;;;;;;5033321;28;20426;-69
2022/11/18 07:19:40;;;;;;;1999.90;999.90;;;;;;;;;;5032205;28;20224;-73
2022/11/18 07:22:25;;;;;;;1999.90;999.90;;;;;;;;;;5033564;28;20275;-71
2022/11/18 07:25:10;;;;;;;1999.90;999.90;;;;;;;;;;5032666;28;20777;-71
2022/11/18 07:27:55;;;;;;;1999.90;999.90;;;;;;;;;;5034691;28;20213;-71
2022/11/18 07:30:40;;;;;;;1999.90;999.90;;;;;;;;;;5033353;28;20216;-71
2022/11/18 07:33:24;;;;;;;1999.90;999.90;;;;;;;;;;5035076;28;20205;-73
2022/11/18 07:36:11;;;;;;;1999.90;999.90;;;;;;;;;;5041745;28;20197;-71
2022/11/18 07:38:58;;;;;;;1999.90;999.90;;;;;;;;;;5052457;28;20205;-73
2022/11/18 07:41:43;;;;;;;1999.90;999.90;;;;;;;;;;5052720;28;20224;-72
2022/11/18 07:44:28;;;;;;;1999.90;999.90;;;;;;;;;;5052388;28;20240;-72
2022/11/18 07:47:13;;;;;;;1999.90;999.90;;;;;;;;;;5052306;28;20942;-72
2022/11/18 07:49:58;;;;;;;1999.90;999.90;;;;;;;;;;5049471;28;20227;-72
2022/11/18 07:52:44;;;;;;;1999.90;999.90;;;;;;;;;;5050741;28;20215;-72
2022/11/18 07:55:29;;;;;;;1999.90;999.90;;;;;;;;;;5047919;28;20786;-72
2022/11/18 07:58:13;;;;;;;1999.90;999.90;;;;;;;;;;5052493;28;20212;-72
2022/11/18 08:00:58;;;;;;;1999.90;999.90;;;;;;;;;;5052617;28;20205;-72
2022/11/18 08:03:43;;;;;;;1999.90;999.90;;;;;;;;;;5052421;28;20701;-72
2022/11/18 08:06:28;;;;;;;1999.90;999.90;;;;;;;;;;5051822;28;20236;-73
2022/11/18 08:09:14;;;;;;;1999.90;999.90;;;;;;;;;;5052026;28;20205;-73
2022/11/18 08:11:59;;;;;;;1999.90;999.90;;;;;;;;;;5048918;28;20209;-72
2022/11/18 08:14:44;;;;;;;1999.90;999.90;;;;;;;;;;5051882;28;20236;-71
2022/11/18 08:17:29;;;;;;;1999.90;999.90;;;;;;;;;;5052515;28;20231;-74
2022/11/18 08:20:14;;;;;;;1999.90;999.90;;;;;;;;;;5052110;28;20287;-72
2022/11/18 08:22:58;;;;;;;1999.90;999.90;;;;;;;;;;5052239;28;20263;-71
2022/11/18 08:25:45;;;;;;;1999.90;999.90;;;;;;;;;;5050055;28;20236;-73
2022/11/18 08:28:31;;;;;;;1999.90;999.90;;;;;;;;;;5043443;28;20240;-73
2022/11/18 08:31:17;;;;;;;1999.90;999.90;;;;;;;;;;5052063;28;20214;-73
2022/11/18 08:34:04;;;;;;;1999.90;999.90;;;;;;;;;;5051778;28;20326;-73
2022/11/18 08:36:49;;;;;;;1999.90;999.90;;;;;;;;;;5051899;28;20207;-72
2022/11/18 08:39:34;;;;;;;1999.90;999.90;;;;;;;;;;5051899;28;20243;-76
2022/11/18 08:42:21;;;;;;;1999.90;999.90;;;;;;;;;;5051784;28;20283;-72
2022/11/18 08:45:07;;;;;;;1999.90;999.90;;;;;;;;;;5051229;28;20224;-75
2022/11/18 08:47:52;;;;;;;1999.90;999.90;;;;;;;;;;5051412;28;20228;-73
2022/11/18 08:50:37;;;;;;;1999.90;999.90;;;;;;;;;;5050406;28;20208;-75
2022/11/18 08:53:22;;;;;;;1999.90;999.90;;;;;;;;;;5041729;28;20207;-73
2022/11/18 08:56:07;;;;;;;1999.90;999.90;;;;;;;;;;5045940;28;20420;-73
2022/11/18 08:58:54;;;;;;;1999.90;999.90;;;;;;;;;;5038958;28;20209;-73
2022/11/18 09:01:40;;;;;;;1999.90;999.90;;;;;;;;;;5050477;28;20212;-76
2022/11/18 09:04:25;;;;;;;1999.90;999.90;;;;;;;;;;5049058;28;20761;-74
2022/11/18 09:07:10;;;;;;;1999.90;999.90;;;;;;;;;;5052520;28;20426;-72
2022/11/18 09:09:55;;;;;;;1999.90;999.90;;;;;;;;;;5055179;28;20793;-73
2022/11/18 09:12:40;;;;;;;1999.90;999.90;;;;;;;;;;5051370;28;20762;-72
2022/11/18 09:15:28;;;;;;;1999.90;999.90;;;;;;;;;;5040049;28;20260;-73
2022/11/18 09:18:13;;;;;;;1999.90;999.90;;;;;;;;;;5053640;28;21513;-74
2022/11/18 09:20:59;;;;;;;1999.90;999.90;;;;;;;;;;5058357;28;20212;-75
2022/11/18 09:23:44;;;;;;;1999.90;999.90;;;;;;;;;;5055016;28;20209;-75
2022/11/18 09:26:29;;;;;;;1999.90;999.90;;;;;;;;;;5054789;28;20228;-73
2022/11/18 09:29:14;;;;;;;1999.90;999.90;;;;;;;;;;5055283;28;20227;-75
2022/11/18 09:32:01;;;;;;;1999.90;999.90;;;;;;;;;;5054997;28;20219;-74
2022/11/18 09:34:46;;;;;;;1999.90;999.90;;;;;;;;;;5054357;28;20240;-75
2022/11/18 09:37:33;;;;;;;1999.90;999.90;;;;;;;;;;5055125;28;20220;-75
2022/11/18 09:40:18;;;;;;;1999.90;999.90;;;;;;;;;;5055133;28;20562;-75
2022/11/18 09:43:07;;;;;;;1999.90;999.90;;;;;;;;;;5055014;28;20209;-74
2022/11/18 09:45:56;;;;;;;1999.90;999.90;;;;;;;;;;5054410;28;20220;-75
2022/11/18 09:51:47;;;;;;;1999.90;999.90;;;;;;;;;;5051419;28;20441;-75
2022/11/18 09:54:35;;;;;;;1999.90;999.90;;;;;;;;;;5050540;28;20351;-75
2022/11/18 09:57:21;;;;;;;1999.90;999.90;;;;;;;;;;5049066;28;20682;-76
2022/11/18 10:00:13;;;;;;;1999.90;999.90;;;;;;;;;;5043607;28;20216;-76
2022/11/18 10:03:00;;;;;;;1999.90;999.90;;;;;;;;;;5054419;28;20695;-75
2022/11/18 10:05:49;;;;;;;1999.90;999.90;;;;;;;;;;5049492;28;20311;-75
2022/11/18 10:08:37;;;;;;;1999.90;999.90;;;;;;;;;;5048956;28;20209;-75
2022/11/18 10:11:24;;;;;;;1999.90;999.90;;;;;;;;;;5034473;28;20216;-76
2022/11/18 10:14:15;;;;;;;1999.90;999.90;;;;;;;;;;5049190;28;20430;-76
2022/11/18 10:17:05;;;;;;;1999.90;999.90;;;;;;;;;;5054231;28;20198;-73
2022/11/18 10:19:54;;;;;;;1999.90;999.90;;;;;;;;;;5051721;28;20205;-75
2022/11/18 10:22:44;;;;;;;1999.90;999.90;;;;;;;;;;5053431;28;20209;-75
2022/11/18 10:25:28;;;;;;;1999.90;999.90;;;;;;;;;;5051856;28;20321;-76
2022/11/18 10:28:20;;;;;;;1999.90;999.90;;;;;;;;;;5053840;28;20749;-78
2022/11/18 10:31:06;;;;;;;1999.90;999.90;;;;;;;;;;5054037;28;20275;-75
2022/11/18 10:33:57;;;;;;;1999.90;999.90;;;;;;;;;;5053995;28;20213;-74
2022/11/18 10:36:43;;;;;;;1999.90;999.90;;;;;;;;;;5047846;28;20194;-75
2022/11/18 10:39:29;;;;;;;1999.90;999.90;;;;;;;;;;5053407;28;20205;-75
2022/11/18 10:42:17;;;;;;;1999.90;999.90;;;;;;;;;;5053766;28;20209;-75
2022/11/18 10:45:15;;;;;;;1999.90;999.90;;;;;;;;;;5053523;28;20770;-76
2022/11/18 10:48:06;;;;;;;1999.90;999.90;;;;;;;;;;5050398;28;20210;-74
2022/11/18 10:50:51;;;;;;;1999.90;999.90;;;;;;;;;;5049955;28;20205;-75
2022/11/18 10:53:37;;;;;;;1999.90;999.90;;;;;;;;;;5053620;28;20213;-76
2022/11/18 10:56:23;;;;;;;1999.90;999.90;;;;;;;;;;5048195;28;20233;-76
2022/11/18 10:59:12;;;;;;;1999.90;999.90;;;;;;;;;;5052130;28;20228;-76
2022/11/18 11:01:59;;;;;;;1999.90;999.90;;;;;;;;;;5053725;28;20205;-76
2022/11/18 11:04:44;;;;;;;1999.90;999.90;;;;;;;;;;5053038;28;20228;-76
2022/11/18 11:07:31;;;;;;;1999.90;999.90;;;;;;;;;;5040447;28;20222;-76
2022/11/18 11:10:22;;;;;;;1999.90;999.90;;;;;;;;;;5053092;28;20734;-76
2022/11/18 11:13:12;;;;;;;1999.90;999.90;;;;;;;;;;5053133;28;20204;-76
2022/11/18 11:15:59;;;;;;;1999.90;999.90;;;;;;;;;;5052837;28;20589;-75
2022/11/18 11:18:44;;;;;;;1999.90;999.90;;;;;;;;;;5053245;28;20205;-75
2022/11/18 11:21:29;;;;;;;1999.90;999.90;;;;;;;;;;5052098;28;20205;-76
2022/11/18 11:24:14;;;;;;;1999.90;999.90;;;;;;;;;;5049769;28;20217;-76
2022/11/18 11:27:06;;;;;;;1999.90;999.90;;;;;;;;;;5051843;28;20220;-76
2022/11/18 11:30:06;;;;;;;1999.90;999.90;;;;;;;;;;5051981;28;20626;-75
2022/11/18 11:33:05;;;;;;;1999.90;999.90;;;;;;;;;;5043809;28;20218;-75
2022/11/18 11:36:00;;;;;;;1999.90;999.90;;;;;;;;;;5032517;28;20296;-74
2022/11/18 11:38:54;;;;;;;1999.90;999.90;;;;;;;;;;5032891;28;20726;-75
2022/11/18 11:41:43;;;;;;;1999.90;999.90;;;;;;;;;;5040333;28;20333;-73
2022/11/18 11:44:36;;;;;;;1999.90;999.90;;;;;;;;;;5045248;28;20368;-74
2022/11/18 11:50:31;;;;;;;1999.90;999.90;;;;;;;;;;5032598;28;20290;-77
2022/11/18 11:53:20;;;;;;;1999.90;999.90;;;;;;;;;;5046064;28;20205;-75
2022/11/18 11:56:10;;;;;;;1999.90;999.90;;;;;;;;;;5052102;28;20225;-74
2022/11/18 11:59:08;;;;;;;1999.90;999.90;;;;;;;;;;5052456;28;20572;-73
2022/11/18 12:02:13;;;;;;;1999.90;999.90;;;;;;;;;;5049258;28;20685;-74
2022/11/18 12:05:00;;;;;;;1999.90;999.90;;;;;;;;;;5048166;28;20746;-74
2022/11/18 12:07:49;;;;;;;1999.90;999.90;;;;;;;;;;5051841;28;20229;-75
2022/11/18 12:10:37;;;;;;;1999.90;999.90;;;;;;;;;;5052323;28;20209;-76
2022/11/18 12:13:33;;;;;;;1999.90;999.90;;;;;;;;;;5052319;28;20201;-77
2022/11/18 12:16:22;;;;;;;1999.90;999.90;;;;;;;;;;5042451;28;20233;-74
2022/11/18 12:19:10;;;;;;;1999.90;999.90;;;;;;;;;;5050105;28;20284;-76
2022/11/18 12:21:57;;;;;;;1999.90;999.90;;;;;;;;;;5049978;28;20204;-76
2022/11/18 12:24:43;;;;;;;1999.90;999.90;;;;;;;;;;5046714;28;20349;-75
2022/11/18 12:27:46;;;;;;;1999.90;999.90;;;;;;;;;;5050699;28;20325;-75
2022/11/18 12:30:31;;;;;;;1999.90;999.90;;;;;;;;;;5049092;28;20219;-76
2022/11/18 12:33:17;;;;;;;1999.90;999.90;;;;;;;;;;5045881;28;20687;-75
2022/11/18 12:36:02;;;;;;;1999.90;999.90;;;;;;;;;;5039354;28;20815;-75
2022/11/18 12:38:47;;;;;;;1999.90;999.90;;;;;;;;;;5031143;28;20466;-75
2022/11/18 12:44:55;;;;;;;1999.90;999.90;;;;;;;;;;5038028;28;20286;-77
2022/11/18 12:47:58;;;;;;;1999.90;999.90;;;;;;;;;;5046289;28;20220;-75
2022/11/18 12:50:46;;;;;;;1999.90;999.90;;;;;;;;;;5051627;28;20206;-75
2022/11/18 12:53:36;;;;;;;1999.90;999.90;;;;;;;;;;5051786;28;20332;-76
2022/11/18 12:56:23;;;;;;;1999.90;999.90;;;;;;;;;;5051726;28;20229;-74
2022/11/18 12:59:12;;;;;;;1999.90;999.90;;;;;;;;;;5051681;28;20549;-75
2022/11/18 13:02:18;;;;;;;1999.90;999.90;;;;;;;;;;5051898;28;20318;-75
2022/11/18 13:05:05;;;;;;;1999.90;999.90;;;;;;;;;;5051817;28;20594;-76
2022/11/18 13:11:43;;;;;;;1999.90;999.90;;;;;;;;;;5052032;28;20197;-75
2022/11/18 13:20:40;;;;;;;1999.90;999.90;;;;;;;;;;4970749;28;20593;-76
2022/11/18 13:26:32;;;;;;;1999.90;999.90;;;;;;;;;;5048097;28;20230;-76
2022/11/18 13:29:25;;;;;;;1999.90;999.90;;;;;;;;;;5050453;28;20265;-75
2022/11/18 13:32:19;;;;;;;1999.90;999.90;;;;;;;;;;5050545;28;20787;-75
2022/11/18 13:35:10;;;;;;;1999.90;999.90;;;;;;;;;;5052476;28;20409;-76
2022/11/18 13:37:58;;;;;;;1999.90;999.90;;;;;;;;;;5051441;28;20699;-75
2022/11/18 13:41:03;;;;;;;1999.90;999.90;;;;;;;;;;5051311;28;20777;-75
2022/11/18 13:43:48;;;;;;;1999.90;999.90;;;;;;;;;;5052199;28;20296;-75
2022/11/18 13:46:33;;;;;;;1999.90;999.90;;;;;;;;;;5053005;28;20233;-76
2022/11/18 13:49:21;;;;;;;1999.90;999.90;;;;;;;;;;5054690;28;20225;-76
2022/11/18 13:52:05;;;;;;;1999.90;999.90;;;;;;;;;;5054637;28;20744;-76
2022/11/18 13:54:54;;;;;;;1999.90;999.90;;;;;;;;;;5045574;28;20914;-76
2022/11/18 13:57:39;;;;;;;1999.90;999.90;;;;;;;;;;5038382;28;20231;-76
2022/11/18 14:00:25;;;;;;;1999.90;999.90;;;;;;;;;;5044895;28;20238;-75
2022/11/18 14:03:21;;;;;;;1999.90;999.90;;;;;;;;;;5051231;28;20209;-76
2022/11/18 14:06:06;;;;;;;1999.90;999.90;;;;;;;;;;5052788;28;20225;-75
2022/11/18 14:08:52;;;;;;;1999.90;999.90;;;;;;;;;;5054253;28;20279;-76
2022/11/18 14:11:39;;;;;;;1999.90;999.90;;;;;;;;;;5054403;28;20229;-76
2022/11/18 14:14:28;;;;;;;1999.90;999.90;;;;;;;;;;5053965;28;20201;-76
2022/11/18 14:17:18;;;;;;;1999.90;999.90;;;;;;;;;;5054432;28;20194;-76
2022/11/18 14:20:07;;;;;;;1999.90;999.90;;;;;;;;;;5046661;28;20201;-78
2022/11/18 14:22:54;;;;;;;1999.90;999.90;;;;;;;;;;5034269;28;20270;-76
2022/11/18 14:25:43;;;;;;;1999.90;999.90;;;;;;;;;;5033990;28;20295;-76
2022/11/18 14:28:32;;;;;;;1999.90;999.90;;;;;;;;;;5033954;28;20269;-76
2022/11/18 14:31:23;;;;;;;1999.90;999.90;;;;;;;;;;5046228;28;20218;-76
2022/11/18 14:34:17;;;;;;;1999.90;999.90;;;;;;;;;;5051005;28;20310;-78
2022/11/18 14:37:06;;;;;;;1999.90;999.90;;;;;;;;;;5049716;28;20222;-76
2022/11/18 14:39:54;;;;;;;1999.90;999.90;;;;;;;;;;5049085;28;20259;-76
2022/11/18 14:42:40;;;;;;;1999.90;999.90;;;;;;;;;;5048568;28;20574;-76
2022/11/18 14:45:27;;;;;;;1999.90;999.90;;;;;;;;;;5053475;28;20594;-76
2022/11/18 14:48:20;;;;;;;1999.90;999.90;;;;;;;;;;5053845;28;20229;-76
2022/11/18 14:51:05;;;;;;;1999.90;999.90;;;;;;;;;;5053740;28;20197;-75
2022/11/18 14:53:50;;;;;;;1999.90;999.90;;;;;;;;;;5043849;28;20251;-77
2022/11/18 14:56:35;;;;;;;1999.90;999.90;;;;;;;;;;5047193;28;20276;-76
2022/11/18 14:59:20;;;;;;;1999.90;999.90;;;;;;;;;;5053620;28;20283;-76
2022/11/18 15:02:12;;;;;;;1999.90;999.90;;;;;;;;;;5053475;28;20578;-76
2022/11/18 15:04:57;;;;;;;1999.90;999.90;;;;;;;;;;5052095;28;20724;-76
2022/11/18 15:07:42;;;;;;;1999.90;999.90;;;;;;;;;;5053108;28;20225;-75
2022/11/18 15:10:27;;;;;;;1999.90;999.90;;;;;;;;;;5053029;28;20412;-76
2022/11/18 15:13:12;;;;;;;1999.90;999.90;;;;;;;;;;5053260;28;20611;-79
2022/11/18 15:15:56;;;;;;;1999.90;999.90;;;;;;;;;;5051758;28;20241;-75
2022/11/18 15:18:43;;;;;;;1999.90;999.90;;;;;;;;;;5052963;28;20205;-74
2022/11/18 15:21:28;;;;;;;1999.90;999.90;;;;;;;;;;5053141;28;20281;-75
2022/11/18 15:24:13;;;;;;;1999.90;999.90;;;;;;;;;;5052790;28;20283;-75
2022/11/18 15:26:58;;;;;;;1999.90;999.90;;;;;;;;;;5053099;28;20248;-75
2022/11/18 15:29:43;;;;;;;1999.90;999.90;;;;;;;;;;5051964;28;20683;-75
2022/11/18 15:32:28;;;;;;;1999.90;999.90;;;;;;;;;;5045696;28;20738;-76
2022/11/18 15:35:14;;;;;;;1999.90;999.90;;;;;;;;;;5052563;28;20356;-76
2022/11/18 15:37:59;;;;;;;1999.90;999.90;;;;;;;;;;5044056;28;20209;-76
2022/11/18 15:40:43;;;;;;;1999.90;999.90;;;;;;;;;;5052839;28;20209;-76
2022/11/18 15:43:28;;;;;;;1999.90;999.90;;;;;;;;;;5052737;28;20275;-76
2022/11/18 15:46:13;;;;;;;1999.90;999.90;;;;;;;;;;5052477;28;20283;-76
2022/11/18 15:48:58;;;;;;;1999.90;999.90;;;;;;;;;;5051425;28;20237;-75
2022/11/18 15:51:45;;;;;;;1999.90;999.90;;;;;;;;;;5052247;28;20811;-76
2022/11/18 15:54:30;;;;;;;1999.90;999.90;;;;;;;;;;5052014;28;20375;-78
2022/11/18 15:57:15;;;;;;;1999.90;999.90;;;;;;;;;;5052715;28;20224;-76
2022/11/18 15:59:59;;;;;;;1999.90;999.90;;;;;;;;;;5050251;28;20201;-75
2022/11/18 16:02:44;;;;;;;1999.90;999.90;;;;;;;;;;5047589;28;20294;-77
2022/11/18 16:05:29;;;;;;;1999.90;999.90;;;;;;;;;;5050882;28;20275;-76
2022/11/18 16:08:15;;;;;;;1999.90;999.90;;;;;;;;;;5049537;28;20484;-75
2022/11/18 16:14:03;;;;;;;1999.90;999.90;;;;;;;;;;5052411;28;20220;-76
2022/11/18 16:16:49;;;;;;;1999.90;999.90;;;;;;;;;;5052246;28;20208;-75
2022/11/18 16:19:34;;;;;;;1999.90;999.90;;;;;;;;;;5052148;28;20201;-77
2022/11/18 16:22:19;;;;;;;1999.90;999.90;;;;;;;;;;5052323;28;20208;-73
2022/11/18 16:25:06;;;;;;;1999.90;999.90;;;;;;;;;;5051691;28;20229;-77
2022/11/18 16:27:51;;;;;;;1999.90;999.90;;;;;;;;;;5042492;28;20453;-75
2022/11/18 16:33:38;;;;;;;1999.90;999.90;;;;;;;;;;5051031;28;20232;-76
2022/11/18 16:36:27;;;;;;;1999.90;999.90;;;;;;;;;;5031687;28;20249;-76
2022/11/18 16:39:13;;;;;;;1999.90;999.90;;;;;;;;;;5033111;28;20681;-74
2022/11/18 16:42:00;;;;;;;1999.90;999.90;;;;;;;;;;5032663;28;20360;-76
2022/11/18 16:44:45;;;;;;;1999.90;999.90;;;;;;;;;;5031971;28;20225;-76
2022/11/18 16:47:30;;;;;;;1999.90;999.90;;;;;;;;;;5032080;28;20205;-74
2022/11/18 16:50:15;;;;;;;1999.90;999.90;;;;;;;;;;5032073;28;20674;-75
2022/11/18 16:53:00;;;;;;;1999.90;999.90;;;;;;;;;;5031789;28;20253;-74
2022/11/18 16:55:45;;;;;;;1999.90;999.90;;;;;;;;;;5042092;28;20234;-76
2022/11/18 16:58:31;;;;;;;1999.90;999.90;;;;;;;;;;5031815;28;20221;-75
2022/11/18 17:01:16;;;;;;;1999.90;999.90;;;;;;;;;;5031890;28;20210;-75
2022/11/18 17:04:01;;;;;;;1999.90;999.90;;;;;;;;;;5052232;28;20291;-74
2022/11/18 17:06:46;;;;;;;1999.90;999.90;;;;;;;;;;5051706;28;20574;-74
2022/11/18 17:09:31;;;;;;;1999.90;999.90;;;;;;;;;;5051292;28;20267;-76
2022/11/18 17:12:16;;;;;;;1999.90;999.90;;;;;;;;;;5044987;28;20218;-76
2022/11/18 17:15:02;;;;;;;1999.90;999.90;;;;;;;;;;5051195;28;20751;-76
2022/11/18 17:17:47;;;;;;;1999.90;999.90;;;;;;;;;;5050947;28;20216;-76
2022/11/18 17:20:34;;;;;;;1999.90;999.90;;;;;;;;;;5033934;28;20310;-76
2022/11/18 17:23:19;;;;;;;1999.90;999.90;;;;;;;;;;5047173;28;20204;-75
2022/11/18 17:26:04;;;;;;;1999.90;999.90;;;;;;;;;;5052467;28;20441;-74
2022/11/18 17:28:49;;;;;;;1999.90;999.90;;;;;;;;;;5055024;28;20350;-78
2022/11/18 17:31:35;;;;;;;1999.90;999.90;;;;;;;;;;5048521;28;20687;-76
2022/11/18 17:34:21;;;;;;;1999.90;999.90;;;;;;;;;;5045887;28;20213;-77
2022/11/18 17:37:06;;;;;;;1999.90;999.90;;;;;;;;;;5052231;28;20216;-75
2022/11/18 17:39:51;;;;;;;1999.90;999.90;;;;;;;;;;5055056;28;20216;-76
2022/11/18 17:42:35;;;;;;;1999.90;999.90;;;;;;;;;;5053696;28;20205;-76
2022/11/18 17:45:21;;;;;;;1999.90;999.90;;;;;;;;;;5033720;28;20440;-76
2022/11/18 17:48:07;;;;;;;1999.90;999.90;;;;;;;;;;5052145;28;20568;-75
2022/11/18 17:50:52;;;;;;;1999.90;999.90;;;;;;;;;;5050176;28;20215;-76
2022/11/18 17:53:37;;;;;;;1999.90;999.90;;;;;;;;;;5046722;28;20580;-74
2022/11/18 17:56:23;;;;;;;1999.90;999.90;;;;;;;;;;5052497;28;20322;-76
2022/11/18 17:59:07;;;;;;;1999.90;999.90;;;;;;;;;;5054574;28;20694;-74
2022/11/18 18:01:52;;;;;;;1999.90;999.90;;;;;;;;;;5054788;28;20212;-77
2022/11/18 18:04:38;;;;;;;1999.90;999.90;;;;;;;;;;5054411;28;20229;-76
2022/11/18 18:07:23;;;;;;;1999.90;999.90;;;;;;;;;;5054585;28;20208;-76
2022/11/18 18:10:08;;;;;;;1999.90;999.90;;;;;;;;;;5052526;28;20606;-76
2022/11/18 18:16:00;;;;;;;1999.90;999.90;;;;;;;;;;5052111;28;20244;-75
2022/11/18 18:18:45;;;;;;;1999.90;999.90;;;;;;;;;;5036446;28;20233;-75
2022/11/18 18:21:31;;;;;;;1999.90;999.90;;;;;;;;;;5036731;28;20210;-76
2022/11/18 18:24:18;;;;;;;1999.90;999.90;;;;;;;;;;5033590;28;20697;-76
2022/11/18 18:27:03;;;;;;;1999.90;999.90;;;;;;;;;;5032567;28;20217;-77
2022/11/18 18:29:48;;;;;;;1999.90;999.90;;;;;;;;;;5031951;28;21059;-75
2022/11/18 18:32:33;;;;;;;1999.90;999.90;;;;;;;;;;5039939;28;20344;-77
2022/11/18 18:35:18;;;;;;;1999.90;999.90;;;;;;;;;;5036336;28;20460;-78
2022/11/18 18:38:04;;;;;;;1999.90;999.90;;;;;;;;;;5038265;28;20208;-77
2022/11/18 18:40:49;;;;;;;1999.90;999.90;;;;;;;;;;5046358;28;20750;-77
2022/11/18 18:43:33;;;;;;;1999.90;999.90;;;;;;;;;;5034573;28;20285;-77
2022/11/18 18:46:35;;;;;;;1999.90;999.90;;;;;;;;;;5051240;28;20232;-77
2022/11/18 18:49:21;;;;;;;1999.90;999.90;;;;;;;;;;5053830;28;20209;-76
2022/11/18 18:52:06;;;;;;;1999.90;999.90;;;;;;;;;;5053982;28;20205;-76
2022/11/18 18:54:52;;;;;;;1999.90;999.90;;;;;;;;;;5053199;28;20913;-76
2022/11/18 18:57:36;;;;;;;1999.90;999.90;;;;;;;;;;5053886;28;20200;-76
2022/11/18 19:00:21;;;;;;;1999.90;999.90;;;;;;;;;;5053707;28;20208;-76
2022/11/18 19:03:06;;;;;;;1999.90;999.90;;;;;;;;;;5053519;28;20401;-76
2022/11/18 19:05:51;;;;;;;1999.90;999.90;;;;;;;;;;5053845;28;20457;-76
2022/11/18 19:08:36;;;;;;;1999.90;999.90;;;;;;;;;;5054308;28;20229;-77
2022/11/18 19:14:26;;;;;;;1999.90;999.90;;;;;;;;;;5053557;28;20596;-78
2022/11/18 19:17:11;;;;;;;1999.90;999.90;;;;;;;;;;5054396;28;20200;-75
2022/11/18 19:23:00;;;;;;;1999.90;999.90;;;;;;;;;;5054182;28;20242;-76
2022/11/18 19:25:45;;;;;;;1999.90;999.90;;;;;;;;;;5054203;28;20232;-76
2022/11/18 19:28:31;;;;;;;1999.90;999.90;;;;;;;;;;5054062;28;20286;-75
2022/11/18 19:31:18;;;;;;;1999.90;999.90;;;;;;;;;;5054127;28;20212;-75
2022/11/18 19:34:03;;;;;;;1999.90;999.90;;;;;;;;;;5053596;28;20766;-76
2022/11/18 19:36:49;;;;;;;1999.90;999.90;;;;;;;;;;5053901;28;20670;-77
2022/11/18 19:39:34;;;;;;;1999.90;999.90;;;;;;;;;;5051047;28;20274;-76
2022/11/18 19:42:19;;;;;;;1999.90;999.90;;;;;;;;;;5033161;28;20219;-76
2022/11/18 19:45:06;;;;;;;1999.90;999.90;;;;;;;;;;5044083;28;20235;-76
2022/11/18 19:47:51;;;;;;;1999.90;999.90;;;;;;;;;;5038305;28;20327;-76
2022/11/18 19:50:36;;;;;;;1999.90;999.90;;;;;;;;;;5051685;28;20863;-76
2022/11/18 19:53:33;;;;;;;1999.90;999.90;;;;;;;;;;5052245;28;20212;-75
2022/11/18 19:56:20;;;;;;;1999.90;999.90;;;;;;;;;;5045364;28;20362;-76
2022/11/18 19:59:05;;;;;;;1999.90;999.90;;;;;;;;;;5051305;28;20428;-76
2022/11/18 20:01:51;;;;;;;1999.90;999.90;;;;;;;;;;5051853;28;20293;-74
2022/11/18 20:04:36;;;;;;;1999.90;999.90;;;;;;;;;;5050493;28;20350;-75
2022/11/18 20:07:21;;;;;;;1999.90;999.90;;;;;;;;;;5051521;28;20276;-75
2022/11/18 20:10:08;;;;;;;1999.90;999.90;;;;;;;;;;5051353;28;20712;-75
2022/11/18 20:12:53;;;;;;;1999.90;999.90;;;;;;;;;;5049422;28;20786;-77
2022/11/18 20:15:37;;;;;;;1999.90;999.90;;;;;;;;;;5046513;28;20325;-75
2022/11/18 20:18:24;;;;;;;1999.90;999.90;;;;;;;;;;5051706;28;20249;-75
2022/11/18 20:21:10;;;;;;;1999.90;999.90;;;;;;;;;;5050947;28;21120;-76
2022/11/18 20:23:56;;;;;;;1999.90;999.90;;;;;;;;;;5052359;28;20346;-75
2022/11/18 20:26:41;;;;;;;1999.90;999.90;;;;;;;;;;5052624;28;20274;-76
2022/11/18 20:29:26;;;;;;;1999.90;999.90;;;;;;;;;;5052044;28;20716;-75
2022/11/18 20:32:12;;;;;;;1999.90;999.90;;;;;;;;;;5053218;28;20272;-77
2022/11/18 20:34:58;;;;;;;1999.90;999.90;;;;;;;;;;5049427;28;20234;-75